Time;durP1;ratioP1;P1;durP2;ratioP2;P2;SDS_P1;SDS_P2;PMS_P1;PMS_P2;Temp;Humidity;BMP_temperature;BMP_pressure;BME280_temperature;BME280_humidity;BME280_pressure;Samples;Min_cycle;Max_cycle;Signal;HPM_P1;HPM_P2
2023/01/04 00:02:15;;;;;;;0.50;0.50;;;;;;;4.82;100.00;100317.16;5050077;28;20212;-62
2023/01/04 00:04:41;;;;;;;0.50;0.50;;;;;;;4.75;100.00;100321.34;5049452;28;20228;-62
2023/01/04 00:07:08;;;;;;;0.57;0.57;;;;;;;4.73;100.00;100317.09;5050331;28;20208;-62
2023/01/04 00:09:36;;;;;;;0.60;0.60;;;;;;;4.69;100.00;100307.75;5050234;28;20216;-61
2023/01/04 00:12:04;;;;;;;0.67;0.67;;;;;;;4.65;100.00;100318.75;5050612;28;20204;-63
2023/01/04 00:14:30;;;;;;;0.47;0.47;;;;;;;4.64;100.00;100322.09;5052964;28;20266;-62
2023/01/04 00:16:57;;;;;;;0.50;0.50;;;;;;;4.64;100.00;100322.09;5053694;28;20201;-62
2023/01/04 00:19:24;;;;;;;0.63;0.63;;;;;;;4.66;100.00;100325.50;5053293;28;20212;-62
2023/01/04 00:21:52;;;;;;;0.50;0.50;;;;;;;4.62;100.00;100323.78;5053292;28;20246;-63
2023/01/04 00:24:19;;;;;;;0.70;0.70;;;;;;;4.63;100.00;100323.78;5053781;28;20197;-62
2023/01/04 00:26:47;;;;;;;0.53;0.53;;;;;;;4.63;100.00;100328.00;5053640;28;20216;-62
2023/01/04 00:29:14;;;;;;;0.70;0.70;;;;;;;4.54;100.00;100311.03;5052136;28;20197;-61
2023/01/04 00:31:43;;;;;;;0.70;0.70;;;;;;;4.50;100.00;100324.53;5053599;28;20197;-62
2023/01/04 00:34:12;;;;;;;0.90;0.90;;;;;;;4.57;100.00;100330.50;5053296;28;20197;-62
2023/01/04 00:36:39;;;;;;;0.87;0.87;;;;;;;4.59;100.00;100323.75;5053492;28;20196;-62
2023/01/04 00:39:07;;;;;;;0.63;0.63;;;;;;;4.56;100.00;100332.19;5053416;28;20201;-62
2023/01/04 00:41:35;;;;;;;1.10;1.00;;;;;;;4.55;100.00;100322.03;5053469;28;20208;-62
2023/01/04 00:44:04;;;;;;;0.50;0.50;;;;;;;4.50;100.00;100329.59;5053611;28;20203;-63
2023/01/04 00:46:32;;;;;;;0.60;0.60;;;;;;;4.49;100.00;100327.06;5053114;28;20213;-62
2023/01/04 00:48:59;;;;;;;0.57;0.57;;;;;;;4.48;100.00;100331.28;5052871;28;20254;-63
2023/01/04 00:51:26;;;;;;;0.50;0.50;;;;;;;4.43;100.00;100322.75;5052968;28;20259;-62
2023/01/04 00:53:53;;;;;;;0.50;0.50;;;;;;;4.49;100.00;100327.06;5051447;28;20204;-62
2023/01/04 00:56:20;;;;;;;0.50;0.50;;;;;;;4.44;100.00;100331.22;5050353;28;20205;-62
2023/01/04 00:58:47;;;;;;;0.60;0.60;;;;;;;4.43;100.00;100326.97;5052986;28;20205;-62
2023/01/04 01:01:15;;;;;;;0.50;0.50;;;;;;;4.31;100.00;100320.13;5052735;28;20242;-62
2023/01/04 01:03:43;;;;;;;0.70;0.70;;;;;;;4.34;100.00;100326.91;5052801;28;20223;-62
2023/01/04 01:06:11;;;;;;;0.90;0.90;;;;;;;4.29;100.00;100328.56;5052710;28;20212;-61
2023/01/04 01:08:38;;;;;;;0.97;0.97;;;;;;;4.25;100.00;100337.81;5052900;28;20579;-62
2023/01/04 01:11:06;;;;;;;1.43;1.43;;;;;;;4.19;100.00;100333.53;5052565;28;20576;-62
2023/01/04 01:13:33;;;;;;;0.67;0.67;;;;;;;4.23;100.00;100342.88;5052448;28;20201;-62
2023/01/04 01:16:03;;;;;;;0.73;0.73;;;;;;;4.01;100.00;100337.53;5052450;28;20188;-62
2023/01/04 01:18:31;;;;;;;0.60;0.60;;;;;;;3.86;100.00;100328.09;5051394;28;20204;-62
2023/01/04 01:20:58;;;;;;;0.70;0.70;;;;;;;3.95;100.00;100327.34;5052647;28;20254;-62
2023/01/04 01:23:25;;;;;;;0.60;0.60;;;;;;;3.97;100.00;100331.63;5051323;28;20554;-62
2023/01/04 01:25:52;;;;;;;0.50;0.50;;;;;;;4.03;100.00;100325.75;5052680;28;20212;-61
2023/01/04 01:28:19;;;;;;;0.60;0.60;;;;;;;4.06;100.00;100329.16;5052201;28;20213;-61
2023/01/04 01:30:46;;;;;;;0.50;0.50;;;;;;;4.10;100.00;100330.88;5051156;28;20246;-62
2023/01/04 01:33:12;;;;;;;0.70;0.70;;;;;;;4.09;100.00;100329.22;5052096;28;20216;-62
2023/01/04 01:35:41;;;;;;;0.63;0.63;;;;;;;3.95;100.00;100296.91;5051371;28;20200;-62
2023/01/04 01:38:07;;;;;;;0.50;0.50;;;;;;;4.06;100.00;100326.63;5052399;28;20202;-62
2023/01/04 01:40:34;;;;;;;0.57;0.57;;;;;;;3.99;100.00;100324.00;5051861;28;20200;-62
2023/01/04 01:43:01;;;;;;;0.70;0.70;;;;;;;3.96;100.00;100319.75;5052443;28;20695;-62
2023/01/04 01:45:30;;;;;;;0.60;0.60;;;;;;;4.03;100.00;100341.81;5051965;28;20227;-62
2023/01/04 01:48:04;;;;;;;0.60;0.60;;;;;;;3.92;100.00;100338.31;5052463;28;20193;-62
2023/01/04 01:50:35;;;;;;;0.50;0.50;;;;;;;3.82;100.00;100321.28;5052088;28;20295;-62
2023/01/04 01:53:07;;;;;;;0.60;0.60;;;;;;;3.87;100.00;100334.88;5052159;28;20201;-61
2023/01/04 01:55:35;;;;;;;0.63;0.63;;;;;;;3.87;100.00;100323.88;5051831;28;20196;-62
2023/01/04 01:58:03;;;;;;;0.60;0.60;;;;;;;3.95;100.00;100325.66;5052440;28;20552;-62
2023/01/04 02:00:30;;;;;;;0.60;0.60;;;;;;;3.97;100.00;100325.69;5051454;28;20210;-62
2023/01/04 02:03:05;;;;;;;0.67;0.67;;;;;;;4.01;100.00;100322.31;5051493;28;20200;-62
2023/01/04 02:05:34;;;;;;;0.60;0.60;;;;;;;3.99;100.00;100324.88;5052056;28;20297;-62
2023/01/04 02:08:04;;;;;;;0.60;0.60;;;;;;;3.99;100.00;100314.72;5051691;28;20227;-61
2023/01/04 02:10:32;;;;;;;0.60;0.60;;;;;;;3.89;100.00;100320.53;5051393;28;20303;-62
2023/01/04 02:13:11;;;;;;;1.03;0.80;;;;;;;3.88;100.00;100321.34;5051464;28;20197;-61
2023/01/04 02:15:53;;;;;;;1.10;1.10;;;;;;;3.81;100.00;100317.06;5051649;28;20197;-62
2023/01/04 02:18:27;;;;;;;0.60;0.60;;;;;;;3.83;100.00;100312.84;5051330;28;20220;-61
2023/01/04 02:20:59;;;;;;;0.70;0.70;;;;;;;3.85;100.00;100306.09;5050932;28;20195;-62
2023/01/04 02:24:01;;;;;;;1.23;1.23;;;;;;;3.89;100.00;100317.97;5051402;28;20204;-63
2023/01/04 02:27:05;;;;;;;0.70;0.70;;;;;;;3.91;100.00;100321.38;5051713;28;20707;-62
2023/01/04 02:30:14;;;;;;;0.60;0.60;;;;;;;3.91;100.00;100326.44;5031589;28;20204;-62
2023/01/04 02:32:56;;;;;;;0.50;0.50;;;;;;;3.88;100.00;100331.50;5051296;28;20196;-62
2023/01/04 02:35:32;;;;;;;0.70;0.70;;;;;;;3.90;100.00;100321.38;5051195;28;20589;-61
2023/01/04 02:38:09;;;;;;;1.00;1.00;;;;;;;3.89;100.00;100323.06;5050605;28;20207;-62
2023/01/04 02:40:52;;;;;;;1.13;1.13;;;;;;;3.85;100.00;100321.31;5051165;28;20198;-61
2023/01/04 02:46:14;;;;;;;0.70;0.70;;;;;;;3.82;100.00;100325.50;5050377;28;20223;-62
2023/01/04 02:51:29;;;;;;;0.67;0.67;;;;;;;3.75;100.00;100344.84;5051021;28;20200;-62
2023/01/04 02:53:58;;;;;;;0.60;0.60;;;;;;;3.63;100.00;100345.56;5051072;28;20196;-61
2023/01/04 02:56:35;;;;;;;0.60;0.60;;;;;;;3.59;100.00;100348.03;5050532;28;20188;-62
2023/01/04 02:59:23;;;;;;;0.70;0.70;;;;;;;3.38;100.00;100352.81;5050750;28;20205;-61
2023/01/04 03:07:44;;;;;;;0.50;0.50;;;;;;;2.96;100.00;100353.91;5050696;28;20227;-62
2023/01/04 03:10:19;;;;;;;0.60;0.60;;;;;;;2.95;100.00;100351.34;5050756;28;20278;-61
2023/01/04 03:12:52;;;;;;;0.73;0.73;;;;;;;3.00;100.00;100364.94;5050442;28;20200;-61
2023/01/04 03:15:23;;;;;;;0.97;0.97;;;;;;;3.11;100.00;100354.13;5050282;28;20230;-62
2023/01/04 03:17:54;;;;;;;0.53;0.53;;;;;;;3.09;100.00;100330.47;5050474;28;20197;-61
2023/01/04 03:20:23;;;;;;;0.60;0.60;;;;;;;3.22;100.00;100335.69;5050677;28;20266;-62
2023/01/04 03:37:04;;;;;;;0.53;0.53;;;;;;;3.11;100.00;100344.00;5049095;28;20629;-62
2023/01/04 03:48:33;;;;;;;0.50;0.50;;;;;;;2.87;100.00;100356.28;5054484;28;20210;-62
2023/01/04 03:51:13;;;;;;;0.60;0.60;;;;;;;2.89;100.00;100349.56;5054395;28;20231;-62
2023/01/04 03:53:48;;;;;;;0.60;0.60;;;;;;;3.01;100.00;100357.34;5054607;28;20565;-61
2023/01/04 03:56:17;;;;;;;0.60;0.60;;;;;;;3.00;100.00;100352.28;5054529;28;20203;-62
2023/01/04 03:58:44;;;;;;;0.50;0.50;;;;;;;3.07;100.00;100359.97;5054121;28;20203;-62
2023/01/04 04:01:12;;;;;;;0.57;0.57;;;;;;;2.96;100.00;100348.84;5054103;28;20201;-62
2023/01/04 04:09:08;;;;;;;0.60;0.60;;;;;;;3.11;100.00;100364.25;5052785;28;20212;-62
2023/01/04 04:11:35;;;;;;;0.60;0.60;;;;;;;3.13;100.00;100367.66;5053994;28;20196;-62
2023/01/04 04:14:02;;;;;;;0.60;0.60;;;;;;;2.99;100.00;100346.34;5053745;28;20683;-62
2023/01/04 04:16:29;;;;;;;0.70;0.70;;;;;;;3.18;100.00;100363.53;5053804;28;20193;-62
2023/01/04 04:18:56;;;;;;;0.50;0.50;;;;;;;3.16;100.00;100370.25;5053894;28;20235;-62
2023/01/04 04:21:23;;;;;;;0.87;0.87;;;;;;;3.19;100.00;100361.84;5053887;28;20196;-62
2023/01/04 04:23:50;;;;;;;0.67;0.67;;;;;;;3.13;100.00;100374.44;5054003;28;20201;-62
2023/01/04 04:26:18;;;;;;;1.23;1.23;;;;;;;3.09;100.00;100376.06;5052399;28;20212;-61
2023/01/04 04:28:45;;;;;;;0.60;0.60;;;;;;;3.07;100.00;100376.88;5053708;28;20193;-62
2023/01/04 04:31:12;;;;;;;0.77;0.77;;;;;;;2.99;100.00;100365.75;5053416;28;20197;-62
2023/01/04 04:33:39;;;;;;;0.50;0.50;;;;;;;3.06;100.00;100387.81;5053768;28;20204;-61
2023/01/04 04:36:07;;;;;;;0.77;0.77;;;;;;;3.11;100.00;100383.66;5053166;28;20189;-62
2023/01/04 04:38:34;;;;;;;0.67;0.67;;;;;;;3.18;100.00;100381.25;5052097;28;20650;-62
2023/01/04 04:43:53;;;;;;;0.90;0.90;;;;;;;3.17;100.00;100387.16;5053455;28;20208;-62
2023/01/04 04:46:19;;;;;;;1.00;1.00;;;;;;;3.18;100.00;100396.47;5053005;28;20643;-62
2023/01/04 04:48:46;;;;;;;0.80;0.80;;;;;;;3.17;100.00;100383.75;5053365;28;20205;-62
2023/01/04 04:51:13;;;;;;;0.70;0.70;;;;;;;3.14;100.00;100382.03;5052962;28;20200;-62
2023/01/04 04:53:40;;;;;;;0.70;0.70;;;;;;;3.11;100.00;100384.53;5053182;28;20239;-62
2023/01/04 04:56:07;;;;;;;0.73;0.73;;;;;;;3.18;100.00;100396.47;5053235;28;20258;-63
2023/01/04 04:58:34;;;;;;;0.70;0.70;;;;;;;3.11;100.00;100397.19;5051768;28;20197;-61
2023/01/04 05:01:03;;;;;;;0.83;0.83;;;;;;;2.91;100.00;100402.78;5053063;28;20196;-61
2023/01/04 05:03:30;;;;;;;0.53;0.53;;;;;;;2.80;100.00;100407.66;5052409;28;20282;-62
2023/01/04 05:05:57;;;;;;;0.70;0.70;;;;;;;2.69;100.00;100409.13;5050133;28;20204;-61
2023/01/04 05:08:23;;;;;;;0.63;0.63;;;;;;;2.64;100.00;100416.69;5052808;28;20205;-61
2023/01/04 05:10:50;;;;;;;0.60;0.60;;;;;;;2.61;100.00;100421.69;5052896;28;20205;-62
2023/01/04 05:13:19;;;;;;;0.60;0.60;;;;;;;2.62;100.00;100423.38;5052686;28;20664;-62
2023/01/04 05:15:47;;;;;;;0.70;0.70;;;;;;;2.51;100.00;100429.06;5052873;28;20240;-62
2023/01/04 05:18:18;;;;;;;0.63;0.63;;;;;;;2.57;100.00;100431.72;5052765;28;20224;-61
2023/01/04 05:20:45;;;;;;;0.87;0.87;;;;;;;2.52;100.00;100430.78;5052962;28;20665;-62
2023/01/04 05:23:14;;;;;;;0.93;0.93;;;;;;;2.55;100.00;100433.38;5052848;28;20211;-62
2023/01/04 05:25:41;;;;;;;0.60;0.60;;;;;;;2.56;100.00;100427.47;5051979;28;20679;-62
2023/01/04 05:28:09;;;;;;;0.50;0.50;;;;;;;2.62;100.00;100428.44;5052699;28;20270;-62
2023/01/04 05:30:50;;;;;;;0.50;0.50;;;;;;;2.63;100.00;100435.22;5052648;28;20207;-62
2023/01/04 05:33:20;;;;;;;0.60;0.60;;;;;;;2.58;100.00;100436.81;5052087;28;20707;-62
2023/01/04 05:35:47;;;;;;;0.50;0.50;;;;;;;2.60;100.00;100434.28;5052445;28;20204;-62
2023/01/04 05:38:14;;;;;;;0.60;0.60;;;;;;;2.55;100.00;100418.19;5052425;28;20200;-62
2023/01/04 05:40:40;;;;;;;0.60;0.60;;;;;;;2.68;100.00;100437.84;5052012;28;20227;-62
2023/01/04 05:43:06;;;;;;;0.50;0.50;;;;;;;2.66;100.00;100442.00;5051645;28;20200;-61
2023/01/04 05:45:33;;;;;;;0.93;0.93;;;;;;;2.67;100.00;100451.31;5051719;28;20215;-62
2023/01/04 05:48:00;;;;;;;0.60;0.60;;;;;;;2.65;100.00;100452.94;5052180;28;20212;-62
2023/01/04 05:50:28;;;;;;;0.60;0.60;;;;;;;2.66;100.00;100439.47;5052376;28;20669;-62
2023/01/04 05:52:55;;;;;;;0.60;0.60;;;;;;;2.74;100.00;100453.13;5048487;28;20262;-62
2023/01/04 05:55:22;;;;;;;0.80;0.80;;;;;;;2.75;100.00;100449.75;5047992;28;20634;-62
2023/01/04 05:57:50;;;;;;;0.60;0.60;;;;;;;2.81;100.00;100449.84;5040159;28;20205;-61
2023/01/04 06:00:17;;;;;;;0.60;0.60;;;;;;;2.77;100.00;100444.72;5049891;28;20205;-62
2023/01/04 06:02:44;;;;;;;0.60;0.60;;;;;;;2.86;100.00;100458.41;5051379;28;20197;-61
2023/01/04 06:05:12;;;;;;;0.60;0.60;;;;;;;2.86;100.00;100458.41;5051534;28;20224;-62
2023/01/04 06:07:41;;;;;;;0.93;0.93;;;;;;;2.87;100.00;100462.66;5049238;28;20220;-62
2023/01/04 06:10:10;;;;;;;0.50;0.50;;;;;;;2.86;100.00;100452.47;5051344;28;20661;-62
2023/01/04 06:12:37;;;;;;;0.70;0.70;;;;;;;2.89;100.00;100462.66;5051096;28;20204;-62
2023/01/04 06:15:06;;;;;;;0.60;0.60;;;;;;;2.89;100.00;100473.66;5049772;28;20197;-62
2023/01/04 06:17:33;;;;;;;0.80;0.80;;;;;;;2.93;100.00;100469.50;5045125;28;20292;-62
2023/01/04 06:20:00;;;;;;;0.50;0.50;;;;;;;2.96;100.00;100474.63;5051213;28;20207;-62
2023/01/04 06:22:28;;;;;;;1.00;1.00;;;;;;;2.94;100.00;100472.03;5051509;28;20213;-62
2023/01/04 06:24:56;;;;;;;0.67;0.67;;;;;;;2.94;100.00;100486.41;5051224;28;20215;-62
2023/01/04 06:27:23;;;;;;;0.60;0.60;;;;;;;2.94;100.00;100491.47;5050949;28;20221;-62
2023/01/04 06:29:49;;;;;;;0.53;0.53;;;;;;;2.93;100.00;100493.16;5051293;28;20208;-62
2023/01/04 06:32:16;;;;;;;0.67;0.67;;;;;;;2.94;100.00;100497.38;5050980;28;20592;-62
2023/01/04 06:34:43;;;;;;;0.60;0.60;;;;;;;2.88;100.00;100502.31;5051371;28;20250;-62
2023/01/04 06:37:10;;;;;;;0.50;0.50;;;;;;;2.91;100.00;100492.25;5045448;28;20692;-61
2023/01/04 06:39:37;;;;;;;0.60;0.60;;;;;;;2.82;100.00;100479.44;5049134;28;20638;-62
2023/01/04 06:42:43;;;;;;;0.50;0.50;;;;;;;2.82;100.00;100509.81;5046995;28;20201;-62
2023/01/04 06:44:52;;;;;;;0.63;0.63;;;;;;;2.84;100.00;100520.00;5048122;28;20205;-62
2023/01/04 06:47:19;;;;;;;0.70;0.70;;;;;;;2.88;100.00;100515.00;5050622;28;20213;-62
2023/01/04 06:49:46;;;;;;;0.63;0.63;;;;;;;2.91;100.00;100509.97;5050808;28;20208;-62
2023/01/04 06:52:13;;;;;;;0.60;0.60;;;;;;;2.83;100.00;100509.00;5049905;28;20200;-62
2023/01/04 06:54:40;;;;;;;0.80;0.80;;;;;;;2.80;100.00;100508.94;5047488;28;20201;-61
2023/01/04 06:57:08;;;;;;;2.10;2.00;;;;;;;2.87;100.00;100510.78;5050059;28;20227;-61
2023/01/04 06:59:34;;;;;;;0.77;0.77;;;;;;;2.91;100.00;100497.31;5049518;28;20249;-61
2023/01/04 07:02:01;;;;;;;0.60;0.60;;;;;;;3.01;100.00;100506.78;5046320;28;20561;-61
2023/01/04 07:04:28;;;;;;;0.70;0.70;;;;;;;3.05;100.00;100490.81;5044153;28;20228;-63
2023/01/04 07:06:56;;;;;;;0.50;0.50;;;;;;;3.19;100.00;100498.66;5047508;28;20217;-63
2023/01/04 07:09:23;;;;;;;0.80;0.80;;;;;;;3.15;100.00;100482.56;5049297;28;20730;-61
2023/01/04 07:11:50;;;;;;;0.60;0.60;;;;;;;3.32;100.00;100492.13;5047553;28;20197;-62
2023/01/04 07:14:18;;;;;;;0.50;0.50;;;;;;;3.37;100.00;100498.09;5046922;28;20204;-64
2023/01/04 07:16:45;;;;;;;0.87;0.87;;;;;;;3.42;100.00;100501.59;5048183;28;20661;-64
2023/01/04 07:19:12;;;;;;;0.60;0.60;;;;;;;3.48;100.00;100511.81;5048383;28;20196;-64
2023/01/04 07:21:38;;;;;;;0.60;0.60;;;;;;;3.50;100.00;100510.16;5046653;28;20211;-62
2023/01/04 07:24:05;;;;;;;0.60;0.60;;;;;;;3.52;100.00;100509.34;5050152;28;20197;-63
2023/01/04 07:26:33;;;;;;;1.17;1.17;;;;;;;3.60;100.00;100501.84;5048161;28;20208;-62
2023/01/04 07:29:15;;;;;;;0.57;0.57;;;;;;;3.67;100.00;100503.66;5048481;28;20688;-62
2023/01/04 07:31:46;;;;;;;2.00;0.70;;;;;;;3.83;100.00;100510.66;5047554;28;20462;-59
2023/01/04 07:34:13;;;;;;;0.97;0.97;;;;;;;3.95;100.00;100515.91;5046466;28;20208;-58
2023/01/04 07:36:40;;;;;;;0.60;0.60;;;;;;;4.01;100.00;100513.47;5044872;28;20200;-59
2023/01/04 07:39:11;;;;;;;0.60;0.60;;;;;;;4.13;100.00;100511.13;5046523;28;20831;-66
2023/01/04 07:41:38;;;;;;;0.50;0.50;;;;;;;4.29;100.00;100512.16;5047472;28;20208;-66
2023/01/04 07:44:06;;;;;;;1.33;1.33;;;;;;;4.41;100.00;100511.44;5047655;28;20738;-66
2023/01/04 07:46:33;;;;;;;0.60;0.60;;;;;;;4.29;100.00;100491.84;5047241;28;20211;-66
2023/01/04 07:49:01;;;;;;;0.43;0.43;;;;;;;4.44;100.00;100514.88;5047903;28;20220;-65
2023/01/04 07:51:30;;;;;;;0.60;0.60;;;;;;;4.49;100.00;100509.88;5047531;28;20212;-66
2023/01/04 07:53:57;;;;;;;0.60;0.60;;;;;;;4.54;100.00;100519.25;5047620;28;20205;-66
2023/01/04 07:56:23;;;;;;;0.40;0.40;;;;;;;4.62;100.00;100526.97;5047566;28;20687;-66
2023/01/04 07:58:55;;;;;;;0.50;0.50;;;;;;;4.74;100.00;100522.00;5047635;28;20200;-66
2023/01/04 08:01:22;;;;;;;0.60;0.60;;;;;;;4.79;100.00;100522.91;5048536;28;20262;-66
2023/01/04 08:03:49;;;;;;;0.60;0.60;;;;;;;4.87;100.00;100533.16;5047776;28;20594;-66
2023/01/04 08:06:19;;;;;;;0.57;0.57;;;;;;;4.99;100.00;100521.44;5047882;28;20208;-66
2023/01/04 08:08:46;;;;;;;0.50;0.50;;;;;;;5.03;100.00;100515.56;5047693;28;20220;-66
2023/01/04 08:11:14;;;;;;;0.50;0.50;;;;;;;5.20;100.00;100529.25;5048486;28;20282;-66
2023/01/04 08:13:41;;;;;;;0.50;0.50;;;;;;;5.25;100.00;100532.69;5046780;28;20196;-66
2023/01/04 08:16:08;;;;;;;2.93;1.13;;;;;;;5.39;100.00;100529.44;5047280;28;20209;-66
2023/01/04 08:18:35;;;;;;;2.57;1.33;;;;;;;5.52;100.00;100528.69;5047880;28;20192;-66
2023/01/04 08:21:03;;;;;;;0.80;0.80;;;;;;;5.65;100.00;100527.97;5047800;28;20665;-67
2023/01/04 08:23:33;;;;;;;0.70;0.70;;;;;;;5.64;100.00;100521.16;5048650;28;20208;-67
2023/01/04 08:26:04;;;;;;;0.50;0.50;;;;;;;5.74;100.00;100522.94;5046533;28;20197;-67
2023/01/04 08:28:32;;;;;;;0.80;0.80;;;;;;;5.89;100.00;100533.25;5045085;28;20232;-67
2023/01/04 08:30:59;;;;;;;0.60;0.60;;;;;;;6.05;100.00;100532.50;5048129;28;20219;-67
2023/01/04 08:33:26;;;;;;;0.53;0.53;;;;;;;6.23;100.00;100540.25;5050350;28;20956;-67
2023/01/04 08:35:52;;;;;;;0.80;0.80;;;;;;;6.32;100.00;100532.66;5052457;28;20209;-67
2023/01/04 08:38:19;;;;;;;0.60;0.60;;;;;;;6.40;100.00;100516.56;5052283;28;20199;-67
2023/01/04 08:40:47;;;;;;;0.50;0.50;;;;;;;6.59;100.00;100518.34;5050950;28;20565;-68
2023/01/04 08:43:14;;;;;;;0.60;0.60;;;;;;;6.79;100.00;100516.69;5051551;28;20589;-67
2023/01/04 08:45:42;;;;;;;0.67;0.67;;;;;;;6.97;100.00;100516.75;5052280;28;20714;-68
2023/01/04 08:48:09;;;;;;;0.40;0.40;;;;;;;7.11;100.00;100522.72;5052329;28;20212;-67
2023/01/04 08:50:36;;;;;;;0.40;0.40;;;;;;;7.22;100.00;100508.31;5052847;28;20219;-67
2023/01/04 08:53:03;;;;;;;0.50;0.50;;;;;;;7.30;100.00;100496.38;5047170;28;20216;-67
2023/01/04 08:55:30;;;;;;;0.53;0.53;;;;;;;7.53;100.00;100506.59;5051189;28;20208;-67
2023/01/04 08:57:59;;;;;;;0.60;0.60;;;;;;;7.66;100.00;100513.41;5051828;28;20561;-67
2023/01/04 09:00:26;;;;;;;0.93;0.93;;;;;;;7.84;100.00;100515.09;5051562;28;20680;-67
2023/01/04 09:02:53;;;;;;;0.83;0.83;;;;;;;8.00;100.00;100506.56;5052451;28;20251;-67
2023/01/04 09:05:20;;;;;;;0.50;0.50;;;;;;;8.17;100.00;100502.25;5051790;28;20212;-67
2023/01/04 09:07:46;;;;;;;0.60;0.60;;;;;;;8.28;100.00;100498.00;5051281;28;20219;-67
2023/01/04 09:10:13;;;;;;;0.40;0.40;;;;;;;8.42;100.00;100496.25;5048870;28;20205;-67
2023/01/04 09:12:41;;;;;;;0.97;0.97;;;;;;;8.59;100.00;100495.31;5049838;28;20726;-67
2023/01/04 09:15:10;;;;;;;0.80;0.80;;;;;;;8.64;100.00;100480.81;5048957;28;20278;-67
2023/01/04 09:17:37;;;;;;;0.53;0.53;;;;;;;8.90;100.00;100491.75;5047909;28;20196;-67
2023/01/04 09:20:05;;;;;;;0.60;0.60;;;;;;;9.12;100.00;100489.88;5050423;28;20201;-67
2023/01/04 09:22:32;;;;;;;0.40;0.40;;;;;;;9.36;100.00;100485.44;5050309;28;20626;-66
2023/01/04 09:24:58;;;;;;;0.47;0.47;;;;;;;9.47;100.00;100491.31;5047962;28;20208;-68
2023/01/04 09:27:25;;;;;;;0.50;0.50;;;;;;;9.67;100.00;100491.16;5049955;28;20209;-68
2023/01/04 09:29:52;;;;;;;0.67;0.67;;;;;;;9.72;100.00;100478.31;5050110;28;20223;-68
2023/01/04 09:32:20;;;;;;;0.50;0.50;;;;;;;9.87;100.00;100479.00;5048922;28;20208;-68
2023/01/04 09:34:47;;;;;;;1.00;1.00;;;;;;;10.08;100.00;100467.66;5047822;28;20201;-68
2023/01/04 09:37:14;;;;;;;0.63;0.63;;;;;;;10.22;100.00;100470.09;5050164;28;20205;-68
2023/01/04 09:39:41;;;;;;;0.50;0.50;;;;;;;10.30;100.00;100463.19;5049906;28;20196;-67
2023/01/04 09:42:17;;;;;;;0.63;0.63;;;;;;;10.40;100.00;100465.59;5046642;28;20227;-68
2023/01/04 09:44:47;;;;;;;0.60;0.60;;;;;;;10.59;100.00;100465.38;5049470;28;20695;-68
2023/01/04 09:47:17;;;;;;;0.50;0.50;;;;;;;10.69;100.00;100461.84;5048046;28;20656;-69
2023/01/04 09:49:50;;;;;;;1.33;1.33;;;;;;;10.81;100.00;100451.41;5050814;28;20263;-68
2023/01/04 09:52:23;;;;;;;0.77;0.77;;;;;;;10.94;100.00;100447.78;5048023;28;20200;-67
2023/01/04 09:54:55;;;;;;;0.50;0.50;;;;;;;11.10;100.00;100449.25;5048829;28;20223;-68
2023/01/04 09:57:28;;;;;;;1.03;1.03;;;;;;;11.20;100.00;100442.25;5049326;28;20649;-66
2023/01/04 10:00:00;;;;;;;0.50;0.50;;;;;;;11.38;100.00;100440.22;5047586;28;20207;-67
2023/01/04 10:02:42;;;;;;;0.70;0.70;;;;;;;11.45;100.00;100440.97;5049414;28;20197;-68
2023/01/04 10:05:17;;;;;;;0.40;0.40;;;;;;;11.50;100.00;100440.00;5048243;28;20224;-67
2023/01/04 10:07:44;;;;;;;0.50;0.50;;;;;;;11.65;100.00;100433.75;5050581;28;20220;-66
2023/01/04 10:10:14;;;;;;;0.50;0.50;;;;;;;11.72;100.00;100434.53;5051485;28;20565;-67
2023/01/04 10:12:51;;;;;;;0.50;0.50;;;;;;;11.82;100.00;100420.66;5048824;28;20300;-67
2023/01/04 10:15:30;;;;;;;0.53;0.53;;;;;;;11.99;100.00;100428.84;5050299;28;20208;-67
2023/01/04 10:18:12;;;;;;;0.40;0.40;;;;;;;12.03;100.00;100433.91;5047781;28;20205;-67
2023/01/04 10:21:01;;;;;;;0.43;0.43;;;;;;;12.05;100.00;100418.47;5047723;28;20208;-68
2023/01/04 10:23:42;;;;;;;0.50;0.50;;;;;;;12.18;100.00;100424.22;5049225;28;20738;-68
2023/01/04 10:26:13;;;;;;;0.73;0.73;;;;;;;12.28;100.00;100416.25;5047703;28;20208;-67
2023/01/04 10:29:05;;;;;;;0.40;0.40;;;;;;;12.37;100.00;100410.94;5046774;28;20699;-67
2023/01/04 10:31:38;;;;;;;0.50;0.50;;;;;;;12.39;100.00;100404.03;5048432;28;20213;-67
2023/01/04 10:34:16;;;;;;;0.40;0.40;;;;;;;12.63;100.00;100412.94;5049564;28;20258;-67
2023/01/04 10:36:47;;;;;;;0.50;0.50;;;;;;;12.72;100.00;100417.03;5045824;28;20265;-67
2023/01/04 10:39:16;;;;;;;0.40;0.40;;;;;;;12.80;100.00;100409.97;5049210;28;20254;-67
2023/01/04 10:41:50;;;;;;;0.50;0.50;;;;;;;12.86;100.00;100409.84;5049786;28;20207;-67
2023/01/04 10:44:21;;;;;;;0.67;0.67;;;;;;;12.88;100.00;100403.78;5048187;28;20236;-67
2023/01/04 10:46:56;;;;;;;0.53;0.53;;;;;;;13.06;100.00;100408.47;5048512;28;20262;-67
2023/01/04 10:49:32;;;;;;;1.43;1.40;;;;;;;13.05;100.00;100401.63;5048495;28;20220;-67
2023/01/04 10:52:06;;;;;;;0.50;0.50;;;;;;;13.09;100.00;100395.56;5046586;28;20216;-67
2023/01/04 10:54:38;;;;;;;0.40;0.40;;;;;;;13.22;100.00;100390.97;5044616;28;20208;-68
2023/01/04 10:57:12;;;;;;;0.60;0.60;;;;;;;13.33;100.00;100394.13;5049283;28;20201;-67
2023/01/04 10:59:43;;;;;;;0.60;0.60;;;;;;;13.34;100.00;100388.09;5047113;28;20241;-67
2023/01/04 11:02:19;;;;;;;0.80;0.80;;;;;;;13.42;100.00;100390.44;5048768;28;20207;-67
2023/01/04 11:04:55;;;;;;;0.93;0.93;;;;;;;13.46;100.00;100387.78;5048689;28;20235;-67
2023/01/04 11:07:27;;;;;;;0.80;0.80;;;;;;;13.54;100.00;100388.41;5047009;28;20216;-67
2023/01/04 11:09:59;;;;;;;0.50;0.50;;;;;;;13.58;99.75;100387.44;5048267;28;20545;-59
2023/01/04 11:12:26;;;;;;;0.70;0.70;;;;;;;13.67;99.59;100382.03;5047578;28;20873;-59
2023/01/04 11:14:53;;;;;;;0.73;0.73;;;;;;;13.77;99.68;100384.34;5049272;28;20285;-59
2023/01/04 11:17:21;;;;;;;0.63;0.63;;;;;;;13.52;98.33;100330.94;5049661;28;20204;-59
2023/01/04 11:19:48;;;;;;;0.97;0.97;;;;;;;13.91;94.90;100385.69;5049520;28;20217;-59
2023/01/04 11:22:20;;;;;;;0.43;0.43;;;;;;;13.98;93.32;100391.50;5049768;28;20262;-59
2023/01/04 11:24:52;;;;;;;0.50;0.50;;;;;;;13.80;91.81;100368.81;5050663;28;20557;-59
2023/01/04 11:27:22;;;;;;;0.53;0.53;;;;;;;13.99;92.04;100383.72;5050058;28;20255;-59
2023/01/04 11:29:56;;;;;;;1.07;1.07;;;;;;;13.97;92.79;100387.22;5049913;28;20220;-59
2023/01/04 11:32:34;;;;;;;0.70;0.70;;;;;;;14.03;92.41;100394.78;5049769;28;20206;-59
2023/01/04 11:35:01;;;;;;;0.50;0.50;;;;;;;14.03;91.58;100384.47;5050129;28;20209;-59
2023/01/04 11:37:32;;;;;;;0.50;0.50;;;;;;;14.02;91.75;100383.63;5049311;28;20219;-59
2023/01/04 11:40:22;;;;;;;0.40;0.40;;;;;;;14.08;92.23;100385.19;5049472;28;20671;-59
2023/01/04 11:42:51;;;;;;;0.50;0.50;;;;;;;14.04;92.05;100384.44;5049083;28;20305;-59
2023/01/04 11:45:24;;;;;;;0.50;0.50;;;;;;;14.13;91.66;100381.59;5047445;28;20576;-59
2023/01/04 11:47:53;;;;;;;0.63;0.63;;;;;;;14.17;91.10;100387.50;5049451;28;20203;-59
2023/01/04 11:50:35;;;;;;;0.43;0.43;;;;;;;14.23;90.20;100391.63;5050234;28;20697;-59
2023/01/04 11:53:02;;;;;;;0.60;0.60;;;;;;;14.25;90.77;100382.97;5049580;28;20206;-59
2023/01/04 11:55:32;;;;;;;0.50;0.50;;;;;;;14.28;90.99;100380.28;5049028;28;20680;-59
2023/01/04 11:58:11;;;;;;;0.60;0.60;;;;;;;14.33;91.98;100386.19;5047120;28;20282;-59
2023/01/04 12:00:38;;;;;;;0.40;0.40;;;;;;;14.39;88.87;100383.44;5048163;28;20247;-59
2023/01/04 12:03:13;;;;;;;0.40;0.40;;;;;;;14.39;89.13;100380.00;5048541;28;20204;-59
2023/01/04 12:05:40;;;;;;;1.00;1.00;;;;;;;14.38;89.03;100375.75;5048207;28;20207;-59
2023/01/04 12:08:07;;;;;;;0.40;0.40;;;;;;;14.42;88.54;100373.03;5050495;28;20197;-59
2023/01/04 12:10:35;;;;;;;0.40;0.40;;;;;;;14.44;88.93;100373.81;5052153;28;20206;-59
2023/01/04 12:13:02;;;;;;;0.30;0.30;;;;;;;14.50;88.61;100376.22;5052997;28;20212;-59
2023/01/04 12:15:39;;;;;;;0.50;0.50;;;;;;;14.54;87.74;100367.47;5053073;28;20200;-59
2023/01/04 12:18:13;;;;;;;0.40;0.40;;;;;;;14.59;88.12;100375.94;5050781;28;20208;-59
2023/01/04 12:20:39;;;;;;;1.27;1.27;;;;;;;14.63;85.38;100377.53;5053374;28;20198;-59